Track Медянцева Дарья

Time Latitude Longitude Accuracy (66% radius in meters) Altitude (meters) Speed (km/hour) Bearing (degrees) Battery (%) GPS flag
06:57:49 54.461527 53.537094 0 0 0 0 1 delete
06:57:44 54.461502 53.537110 0 0 0 0 1 delete
06:56:33 54.461483 53.537068 0 0 0 0 1 delete
06:56:29 54.461472 53.537016 0 0 0 0 1 delete
06:56:26 54.461457 53.536968 0 0 0 0 1 delete
06:56:22 54.461447 53.536908 0 0 0 0 1 delete
06:56:19 54.461462 53.536854 0 0 0 0 1 delete
06:56:16 54.461476 53.536806 0 0 0 0 1 delete
06:56:13 54.461490 53.536763 0 0 0 0 1 delete
06:56:10 54.461477 53.536708 0 0 0 0 1 delete
06:56:07 54.461447 53.536693 0 0 0 0 1 delete
06:56:04 54.461411 53.536685 0 0 0 0 1 delete
06:56:01 54.461375 53.536683 0 0 0 0 1 delete
06:55:58 54.461345 53.536688 0 0 0 0 1 delete
06:55:55 54.461311 53.536703 0 0 0 0 1 delete
06:55:52 54.461277 53.536739 0 0 0 0 1 delete
06:55:49 54.461248 53.536782 0 0 0 0 1 delete
06:55:46 54.461214 53.536812 0 0 0 0 1 delete
06:55:43 54.461194 53.536847 0 0 0 0 1 delete
06:55:40 54.461177 53.536886 0 0 0 0 1 delete
06:55:37 54.461141 53.536915 0 0 0 0 1 delete
06:55:34 54.461118 53.536942 0 0 0 0 1 delete
06:55:29 54.461088 53.536966 0 0 0 0 1 delete
06:55:26 54.461062 53.536997 0 0 0 0 1 delete
06:55:23 54.461027 53.537028 0 0 0 0 1 delete
06:55:21 54.460999 53.537038 0 0 0 0 1 delete
06:55:19 54.460969 53.537047 0 0 0 0 1 delete
06:55:16 54.460934 53.537048 0 0 0 0 1 delete
06:55:13 54.460905 53.537043 0 0 0 0 1 delete
06:55:10 54.460872 53.537043 0 0 0 0 1 delete
06:55:05 54.460848 53.537009 0 0 0 0 1 delete
06:55:02 54.460819 53.537009 0 0 0 0 1 delete
06:55:00 54.460794 53.537035 0 0 0 0 1 delete
06:54:58 54.460766 53.537058 0 0 0 0 1 delete
06:54:55 54.460738 53.537083 0 0 0 0 1 delete
06:54:52 54.460706 53.537108 0 0 0 0 1 delete
06:54:44 54.460679 53.537135 0 0 0 0 1 delete
06:54:40 54.460650 53.537145 0 0 0 0 1 delete
06:54:29 54.460623 53.537161 0 0 0 0 1 delete
06:54:00 54.460592 53.537198 0 0 0 0 1 delete
06:53:58 54.460580 53.537265 0 0 0 0 1 delete
06:53:57 54.460568 53.537312 0 0 0 0 1 delete
06:53:56 54.460551 53.537352 0 0 0 0 1 delete
06:53:54 54.460515 53.537389 0 0 0 0 1 delete
06:53:52 54.460462 53.537402 0 0 0 0 1 delete
06:53:51 54.460427 53.537368 0 0 0 0 1 delete
06:53:50 54.460396 53.537334 0 0 0 0 1 delete
06:53:48 54.460360 53.537300 0 0 0 0 1 delete
06:53:47 54.460329 53.537297 0 0 0 0 1 delete
06:53:45 54.460265 53.537376 0 0 0 0 1 delete